Time;durP1;ratioP1;P1;durP2;ratioP2;P2;SDS_P1;SDS_P2;PMS_P1;PMS_P2;Temp;Humidity;BMP_temperature;BMP_pressure;BME280_temperature;BME280_humidity;BME280_pressure;Samples;Min_cycle;Max_cycle;Signal;HPM_P1;HPM_P2
2024/03/31 00:00:18;;;;;;;1.95;1.48;;;18.10;58.70;;;;;;5060158;28;20650;-82
2024/03/31 00:02:44;;;;;;;1.65;1.50;;;18.10;58.70;;;;;;5060217;28;20232;-82
2024/03/31 00:05:10;;;;;;;1.70;1.60;;;18.10;58.70;;;;;;5060235;28;20263;-82
2024/03/31 00:07:35;;;;;;;2.25;1.50;;;18.10;58.70;;;;;;5094890;28;20548;-82
2024/03/31 00:10:01;;;;;;;1.50;1.40;;;18.10;58.80;;;;;;5043618;28;20169;-82
2024/03/31 00:12:28;;;;;;;1.63;1.38;;;18.00;58.80;;;;;;5059392;28;20192;-82
2024/03/31 00:14:54;;;;;;;1.52;1.42;;;18.10;58.90;;;;;;5060088;28;20161;-83
2024/03/31 00:17:20;;;;;;;1.50;1.40;;;18.10;58.90;;;;;;5076725;28;20645;-81
2024/03/31 00:19:46;;;;;;;1.60;1.50;;;18.10;58.90;;;;;;5076839;28;20556;-82
2024/03/31 00:22:12;;;;;;;1.42;1.33;;;18.10;58.90;;;;;;5043259;28;20639;-81
2024/03/31 00:24:38;;;;;;;1.50;1.40;;;18.10;58.90;;;;;;5094489;28;20173;-82
2024/03/31 00:27:04;;;;;;;1.48;1.38;;;18.00;58.90;;;;;;5059973;28;20519;-81
2024/03/31 00:29:30;;;;;;;1.63;1.48;;;18.10;58.80;;;;;;5076154;28;20232;-82
2024/03/31 00:31:56;;;;;;;1.85;1.50;;;18.10;58.80;;;;;;5076160;28;20291;-81
2024/03/31 00:34:23;;;;;;;1.85;1.48;;;18.10;58.90;;;;;;5076180;28;20157;-82
2024/03/31 00:36:48;;;;;;;1.67;1.58;;;18.10;58.90;;;;;;5076179;28;20168;-81
2024/03/31 00:39:14;;;;;;;1.80;1.67;;;18.10;58.90;;;;;;5059401;28;20186;-82
2024/03/31 00:41:40;;;;;;;1.63;1.52;;;18.00;58.90;;;;;;5059771;28;20157;-82
2024/03/31 00:44:06;;;;;;;1.92;1.60;;;18.00;58.90;;;;;;5059410;28;20192;-83
2024/03/31 00:46:32;;;;;;;1.50;1.40;;;18.10;59.00;;;;;;5076372;28;20187;-83
2024/03/31 00:48:58;;;;;;;1.75;1.42;;;18.00;58.90;;;;;;5075970;28;20168;-82
2024/03/31 00:51:24;;;;;;;1.60;1.50;;;18.00;58.90;;;;;;5059093;28;20185;-81
2024/03/31 00:53:49;;;;;;;1.60;1.50;;;18.00;58.90;;;;;;5041879;28;20256;-82
2024/03/31 00:56:20;;;;;;;1.50;1.40;;;18.00;58.90;;;;;;5075922;28;20214;-82
2024/03/31 00:58:45;;;;;;;1.58;1.48;;;18.00;58.90;;;;;;5041752;28;20279;-81
2024/03/31 01:01:11;;;;;;;1.50;1.40;;;18.00;59.00;;;;;;5059089;28;20237;-81
2024/03/31 01:03:37;;;;;;;1.55;1.45;;;18.00;59.00;;;;;;5094026;28;20164;-82
2024/03/31 01:06:10;;;;;;;1.60;1.50;;;18.00;58.90;;;;;;5075641;28;20209;-81
2024/03/31 01:08:36;;;;;;;1.70;1.60;;;18.00;59.00;;;;;;5059405;28;20174;-81
2024/03/31 01:11:02;;;;;;;1.50;1.40;;;18.00;59.10;;;;;;5058807;28;20279;-82
2024/03/31 01:13:27;;;;;;;1.65;1.33;;;18.00;59.00;;;;;;5075544;28;20615;-82
2024/03/31 01:15:53;;;;;;;1.40;1.30;;;18.00;59.00;;;;;;5093467;28;20157;-81
2024/03/31 01:18:19;;;;;;;1.48;1.38;;;18.00;59.00;;;;;;5042134;28;20161;-82
2024/03/31 01:20:45;;;;;;;1.60;1.40;;;18.00;59.00;;;;;;5075467;28;20569;-81
2024/03/31 01:23:11;;;;;;;1.80;1.70;;;18.00;59.10;;;;;;5075559;28;20196;-82
2024/03/31 01:25:37;;;;;;;1.50;1.40;;;17.90;59.10;;;;;;5074552;28;20657;-82
2024/03/31 01:28:03;;;;;;;1.60;1.48;;;18.00;59.00;;;;;;5075368;28;20164;-82
2024/03/31 01:30:29;;;;;;;1.60;1.45;;;18.00;59.10;;;;;;5055294;28;20212;-81
2024/03/31 01:32:55;;;;;;;1.75;1.65;;;18.00;59.10;;;;;;5038538;28;20250;-82
2024/03/31 01:35:22;;;;;;;1.40;1.30;;;18.00;59.00;;;;;;5055277;28;20154;-82
2024/03/31 01:37:51;;;;;;;1.70;1.60;;;18.00;59.10;;;;;;5072959;28;20200;-82
2024/03/31 01:40:17;;;;;;;1.63;1.52;;;18.00;59.10;;;;;;5038684;28;20177;-82
2024/03/31 01:42:47;;;;;;;1.73;1.63;;;18.00;59.20;;;;;;5071701;28;20153;-82
2024/03/31 01:45:18;;;;;;;2.63;1.60;;;18.00;59.20;;;;;;5039716;28;20165;-81
2024/03/31 01:47:43;;;;;;;1.73;1.60;;;17.90;59.20;;;;;;5070914;28;20224;-82
2024/03/31 01:50:09;;;;;;;1.50;1.40;;;18.00;59.20;;;;;;5055314;28;20153;-82
2024/03/31 01:52:35;;;;;;;1.50;1.40;;;17.90;59.10;;;;;;5071524;28;20185;-82
2024/03/31 01:55:01;;;;;;;1.55;1.45;;;17.90;59.20;;;;;;5045765;28;20166;-82
2024/03/31 01:57:27;;;;;;;1.83;1.73;;;18.00;59.20;;;;;;5051418;28;20621;-81
2024/03/31 01:59:52;;;;;;;1.65;1.55;;;17.90;59.20;;;;;;5051523;28;20237;-82
2024/03/31 02:02:18;;;;;;;1.60;1.50;;;17.90;59.10;;;;;;5051366;28;20320;-82
2024/03/31 02:04:44;;;;;;;1.48;1.38;;;17.90;59.10;;;;;;5018397;28;20181;-82
2024/03/31 02:07:11;;;;;;;1.60;1.50;;;17.90;59.10;;;;;;5051431;28;20162;-82
2024/03/31 02:09:36;;;;;;;1.45;1.35;;;17.90;59.20;;;;;;5034826;28;20224;-83
2024/03/31 02:12:02;;;;;;;1.88;1.77;;;17.90;59.30;;;;;;5034692;28;20198;-82
2024/03/31 02:14:28;;;;;;;1.42;1.33;;;17.90;59.30;;;;;;5035040;28;20228;-82
2024/03/31 02:16:55;;;;;;;1.40;1.30;;;17.90;59.30;;;;;;5051376;28;20154;-82
2024/03/31 02:19:23;;;;;;;1.80;1.70;;;17.90;59.40;;;;;;5035008;28;20177;-82
2024/03/31 02:21:52;;;;;;;1.60;1.45;;;17.90;59.40;;;;;;5034964;28;20176;-82
2024/03/31 02:24:17;;;;;;;1.80;1.50;;;17.90;59.30;;;;;;5018135;28;20223;-83
2024/03/31 02:26:43;;;;;;;1.55;1.45;;;17.90;59.20;;;;;;5018252;28;20166;-81
2024/03/31 02:29:10;;;;;;;2.10;1.60;;;17.90;59.20;;;;;;5034455;28;20218;-82
2024/03/31 02:31:40;;;;;;;1.70;1.60;;;17.90;59.30;;;;;;5034593;28;20197;-81
2024/03/31 02:34:05;;;;;;;1.70;1.60;;;17.90;59.30;;;;;;5050449;28;20209;-82
2024/03/31 02:36:32;;;;;;;1.48;1.38;;;17.90;59.30;;;;;;5036391;28;20498;-82
2024/03/31 02:38:59;;;;;;;1.67;1.52;;;17.90;59.30;;;;;;5056254;28;20636;-82
2024/03/31 02:41:25;;;;;;;1.63;1.52;;;17.90;59.30;;;;;;5038494;28;20162;-82
2024/03/31 02:43:51;;;;;;;1.52;1.42;;;17.90;59.30;;;;;;5038317;28;20235;-82
2024/03/31 02:46:17;;;;;;;1.48;1.38;;;17.90;59.20;;;;;;5038498;28;20158;-82
2024/03/31 02:48:43;;;;;;;1.70;1.60;;;17.90;59.30;;;;;;5054983;28;20194;-82
2024/03/31 02:51:09;;;;;;;1.98;1.58;;;17.90;59.20;;;;;;5038278;28;20205;-82
2024/03/31 02:53:35;;;;;;;2.00;1.60;;;17.90;59.90;;;;;;5020981;28;20251;-82
2024/03/31 02:56:01;;;;;;;2.30;1.70;;;17.90;59.40;;;;;;5056031;28;20186;-81
2024/03/31 02:58:28;;;;;;;1.40;1.30;;;17.90;59.30;;;;;;5055096;28;20229;-82
2024/03/31 03:01:03;;;;;;;1.70;1.60;;;17.90;59.30;;;;;;5038227;28;20159;-81
2024/03/31 03:03:31;;;;;;;1.58;1.48;;;17.90;59.20;;;;;;5021675;28;20164;-81
2024/03/31 03:05:57;;;;;;;1.70;1.60;;;17.90;59.30;;;;;;5037234;28;20673;-81
2024/03/31 03:08:23;;;;;;;1.83;1.48;;;18.00;59.30;;;;;;5054596;28;20162;-81
2024/03/31 03:10:56;;;;;;;1.85;1.75;;;17.90;59.20;;;;;;5021192;28;20162;-81
2024/03/31 03:13:22;;;;;;;1.58;1.48;;;17.90;59.10;;;;;;5038295;28;20158;-82
2024/03/31 03:15:48;;;;;;;2.45;1.58;;;17.90;59.20;;;;;;5037854;28;20233;-82
2024/03/31 03:18:14;;;;;;;1.40;1.30;;;17.90;59.20;;;;;;5021275;28;20161;-81
2024/03/31 03:20:40;;;;;;;1.60;1.50;;;17.90;59.40;;;;;;5037910;28;20174;-82
2024/03/31 03:23:06;;;;;;;1.52;1.42;;;17.90;59.30;;;;;;5055496;28;20169;-82
2024/03/31 03:25:31;;;;;;;1.73;1.30;;;17.90;59.30;;;;;;5055420;28;20673;-82
2024/03/31 03:27:57;;;;;;;1.60;1.50;;;17.90;59.40;;;;;;5055303;28;20242;-82
2024/03/31 03:30:23;;;;;;;1.85;1.75;;;17.80;59.40;;;;;;5037570;28;20719;-82
2024/03/31 03:32:52;;;;;;;1.85;1.60;;;17.80;59.40;;;;;;5037519;28;20695;-82
2024/03/31 03:35:18;;;;;;;2.00;1.80;;;17.80;59.40;;;;;;5021044;28;20174;-82
2024/03/31 03:37:45;;;;;;;1.85;1.60;;;17.90;60.10;;;;;;5055279;28;20155;-82
2024/03/31 03:40:11;;;;;;;1.92;1.75;;;17.90;59.40;;;;;;5021170;28;20196;-81
2024/03/31 03:42:37;;;;;;;1.77;1.67;;;17.90;59.40;;;;;;5037468;28;20185;-82
2024/03/31 03:45:03;;;;;;;1.65;1.50;;;17.80;59.40;;;;;;5020807;28;20628;-82
2024/03/31 03:47:29;;;;;;;1.40;1.30;;;17.80;59.50;;;;;;5019761;28;20174;-82
2024/03/31 03:49:55;;;;;;;1.50;1.40;;;17.80;59.40;;;;;;5037408;28;20158;-82
2024/03/31 03:52:20;;;;;;;1.50;1.40;;;17.80;59.40;;;;;;5036942;28;20536;-82
2024/03/31 03:54:46;;;;;;;1.58;1.48;;;17.80;59.40;;;;;;5036558;28;20621;-81
2024/03/31 03:57:13;;;;;;;1.67;1.58;;;17.70;59.50;;;;;;5053653;28;20614;-82
2024/03/31 03:59:39;;;;;;;1.90;1.70;;;17.80;59.40;;;;;;5037182;28;20237;-82
2024/03/31 04:02:05;;;;;;;1.70;1.55;;;17.80;59.40;;;;;;5037297;28;20677;-82
2024/03/31 04:04:31;;;;;;;1.73;1.63;;;17.90;59.40;;;;;;5054644;28;20612;-82
2024/03/31 04:06:58;;;;;;;2.00;1.60;;;17.90;59.40;;;;;;5020359;28;20173;-83
2024/03/31 04:09:24;;;;;;;1.40;1.30;;;17.80;59.40;;;;;;5054544;28;20151;-82
2024/03/31 04:11:50;;;;;;;1.73;1.63;;;17.90;59.30;;;;;;5020163;28;20194;-82
2024/03/31 04:14:16;;;;;;;1.55;1.45;;;17.90;59.30;;;;;;5053350;28;20561;-81
2024/03/31 04:16:41;;;;;;;1.90;1.48;;;17.80;59.40;;;;;;5054503;28;20636;-83
2024/03/31 04:19:07;;;;;;;1.83;1.60;;;17.90;59.40;;;;;;5054512;28;20237;-82
2024/03/31 04:21:33;;;;;;;2.15;1.55;;;17.90;59.40;;;;;;5020097;28;20727;-81
2024/03/31 04:23:59;;;;;;;1.73;1.63;;;17.80;59.40;;;;;;5036880;28;20170;-82
2024/03/31 04:26:26;;;;;;;1.70;1.60;;;17.80;59.50;;;;;;5020308;28;20612;-82
2024/03/31 04:28:53;;;;;;;1.60;1.50;;;17.80;59.40;;;;;;5020122;28;20363;-82
2024/03/31 04:31:19;;;;;;;1.50;1.40;;;17.80;59.40;;;;;;5053161;28;20190;-81
2024/03/31 04:33:45;;;;;;;1.50;1.40;;;17.80;59.40;;;;;;5052884;28;20158;-82
2024/03/31 04:36:11;;;;;;;1.50;1.40;;;17.80;59.50;;;;;;5036182;28;20165;-82
2024/03/31 04:38:39;;;;;;;1.85;1.70;;;17.80;59.50;;;;;;5052919;28;20161;-82
2024/03/31 04:41:05;;;;;;;1.70;1.60;;;17.80;59.50;;;;;;5020405;28;20162;-83
2024/03/31 04:43:31;;;;;;;1.60;1.50;;;17.80;59.50;;;;;;5019733;28;20174;-81
2024/03/31 04:46:03;;;;;;;1.92;1.60;;;17.80;59.60;;;;;;5036055;28;20162;-82
2024/03/31 04:48:30;;;;;;;1.58;1.40;;;17.80;59.50;;;;;;5052620;28;20173;-81
2024/03/31 04:50:55;;;;;;;1.80;1.55;;;17.80;59.50;;;;;;5036143;28;20182;-81
2024/03/31 04:53:21;;;;;;;1.90;1.60;;;17.80;59.60;;;;;;5019795;28;20235;-82
2024/03/31 04:55:48;;;;;;;1.70;1.55;;;17.80;59.50;;;;;;5035351;28;20644;-82
2024/03/31 04:58:14;;;;;;;2.00;1.50;;;17.80;59.50;;;;;;5036320;28;20169;-81
2024/03/31 05:00:42;;;;;;;1.70;1.60;;;17.80;59.60;;;;;;5019018;28;20158;-81
2024/03/31 05:03:09;;;;;;;2.03;1.83;;;17.80;59.60;;;;;;5019181;28;20166;-82
2024/03/31 05:05:36;;;;;;;1.60;1.50;;;17.70;59.60;;;;;;5052339;28;20659;-82
2024/03/31 05:08:03;;;;;;;1.67;1.55;;;17.80;59.70;;;;;;5035643;28;20194;-81
2024/03/31 05:10:29;;;;;;;2.10;1.90;;;17.70;59.70;;;;;;5035711;28;20158;-82
2024/03/31 05:12:56;;;;;;;1.70;1.60;;;17.70;59.80;;;;;;5035486;28;20549;-82
2024/03/31 05:15:22;;;;;;;2.33;1.80;;;17.70;59.60;;;;;;5035675;28;20161;-81
2024/03/31 05:17:48;;;;;;;1.75;1.65;;;17.70;59.60;;;;;;5052138;28;20550;-82
2024/03/31 05:20:14;;;;;;;1.90;1.80;;;17.80;59.50;;;;;;5035671;28;20212;-82
2024/03/31 05:22:40;;;;;;;2.08;1.90;;;17.80;59.60;;;;;;5052079;28;20508;-82
2024/03/31 05:25:05;;;;;;;1.98;1.63;;;17.80;59.50;;;;;;5035553;28;20988;-82
2024/03/31 05:27:31;;;;;;;2.08;1.88;;;17.70;59.60;;;;;;5035242;28;20194;-82
2024/03/31 05:29:57;;;;;;;1.92;1.70;;;17.70;59.70;;;;;;5035162;28;20237;-80
2024/03/31 05:32:23;;;;;;;1.70;1.60;;;17.70;59.80;;;;;;5053136;28;20186;-81
2024/03/31 05:34:48;;;;;;;1.58;1.48;;;17.80;59.80;;;;;;5051927;28;20154;-82
2024/03/31 05:37:14;;;;;;;2.00;1.80;;;17.70;59.70;;;;;;5035431;28;20554;-81
2024/03/31 05:39:41;;;;;;;1.70;1.60;;;17.80;59.80;;;;;;5035405;28;20352;-81
2024/03/31 05:42:06;;;;;;;1.48;1.38;;;17.70;59.80;;;;;;5035598;28;20185;-82
2024/03/31 05:44:32;;;;;;;2.00;1.80;;;17.70;59.80;;;;;;5018659;28;20529;-82
2024/03/31 05:46:58;;;;;;;1.58;1.48;;;17.60;60.60;;;;;;5035095;28;20621;-82
2024/03/31 05:49:24;;;;;;;2.00;1.80;;;17.70;59.80;;;;;;5052878;28;20710;-82
2024/03/31 05:51:49;;;;;;;1.70;1.60;;;17.70;59.90;;;;;;5051817;28;20204;-81
2024/03/31 05:54:15;;;;;;;1.95;1.80;;;17.70;59.90;;;;;;5034419;28;20264;-81
2024/03/31 05:56:41;;;;;;;1.70;1.60;;;17.70;59.90;;;;;;5051571;28;20158;-81
2024/03/31 05:59:07;;;;;;;1.65;1.55;;;17.80;59.80;;;;;;5035048;28;20534;-81
2024/03/31 06:01:32;;;;;;;1.80;1.70;;;17.70;59.80;;;;;;5018737;28;20688;-81
2024/03/31 06:03:58;;;;;;;1.77;1.67;;;17.70;59.80;;;;;;5034910;28;20190;-81
2024/03/31 06:06:24;;;;;;;1.90;1.75;;;17.70;59.80;;;;;;5018343;28;20911;-81
2024/03/31 06:08:50;;;;;;;1.80;1.70;;;17.70;59.90;;;;;;5034882;28;20158;-82
2024/03/31 06:11:16;;;;;;;1.63;1.52;;;17.70;59.70;;;;;;5019550;28;20638;-81
2024/03/31 06:13:43;;;;;;;1.88;1.77;;;17.70;59.80;;;;;;5056776;28;20253;-82
2024/03/31 06:16:09;;;;;;;1.95;1.58;;;17.70;59.80;;;;;;5022729;28;20170;-83
2024/03/31 06:18:34;;;;;;;1.85;1.70;;;17.70;59.80;;;;;;5055432;28;20234;-82
2024/03/31 06:21:05;;;;;;;2.53;1.70;;;17.70;59.80;;;;;;5055430;28;20564;-81
2024/03/31 06:23:32;;;;;;;1.77;1.67;;;17.70;59.80;;;;;;5055438;28;20280;-82
2024/03/31 06:25:59;;;;;;;2.22;1.75;;;17.70;59.80;;;;;;5039054;28;20539;-82
2024/03/31 06:28:25;;;;;;;1.67;1.58;;;17.70;59.80;;;;;;5039873;28;20174;-82
2024/03/31 06:30:51;;;;;;;1.60;1.50;;;17.70;59.70;;;;;;5025283;28;20200;-82
2024/03/31 06:33:17;;;;;;;2.60;1.90;;;17.70;59.70;;;;;;5042100;28;20510;-82
2024/03/31 06:35:47;;;;;;;2.05;1.92;;;17.70;59.80;;;;;;5042023;28;20158;-83
2024/03/31 06:38:16;;;;;;;2.28;1.88;;;17.70;59.80;;;;;;5024538;28;20274;-83
2024/03/31 06:40:42;;;;;;;2.40;1.80;;;17.70;59.80;;;;;;5024419;28;20181;-81
2024/03/31 06:43:07;;;;;;;1.70;1.60;;;17.70;59.80;;;;;;5058381;28;20166;-83
2024/03/31 06:45:33;;;;;;;1.63;1.50;;;17.70;59.80;;;;;;5076126;28;20625;-83
2024/03/31 06:47:59;;;;;;;1.80;1.67;;;17.70;59.80;;;;;;5058344;28;20733;-83
2024/03/31 06:50:26;;;;;;;2.17;1.85;;;17.70;59.80;;;;;;5041697;28;20176;-83
2024/03/31 06:52:52;;;;;;;1.98;1.80;;;17.70;59.90;;;;;;5024215;28;20220;-83
2024/03/31 06:55:18;;;;;;;1.98;1.73;;;17.70;59.80;;;;;;5057527;28;20153;-82
2024/03/31 06:57:43;;;;;;;1.80;1.70;;;17.70;59.80;;;;;;5058363;28;20185;-83
2024/03/31 07:00:11;;;;;;;1.90;1.80;;;17.70;59.70;;;;;;5057981;28;20652;-82
2024/03/31 07:02:36;;;;;;;2.38;2.00;;;17.70;59.80;;;;;;5041780;28;20153;-82
2024/03/31 07:05:02;;;;;;;2.30;1.60;;;17.70;59.80;;;;;;5057910;28;20180;-83
2024/03/31 07:07:28;;;;;;;2.00;1.80;;;17.70;59.80;;;;;;5041354;28;20565;-83
2024/03/31 07:09:54;;;;;;;1.80;1.70;;;17.80;59.70;;;;;;5075769;28;20668;-82
2024/03/31 07:12:19;;;;;;;1.90;1.55;;;17.70;59.70;;;;;;5041071;28;20566;-83
2024/03/31 07:14:47;;;;;;;2.00;1.75;;;17.70;59.30;;;;;;5041492;28;20635;-83
2024/03/31 07:17:13;;;;;;;1.80;1.70;;;17.80;59.10;;;;;;5075699;28;20156;-82
2024/03/31 07:19:39;;;;;;;1.77;1.67;;;17.90;59.10;;;;;;5058011;28;20581;-82
2024/03/31 07:22:05;;;;;;;2.00;1.55;;;17.90;59.00;;;;;;5024448;28;20165;-83
2024/03/31 07:24:32;;;;;;;1.75;1.65;;;18.00;58.90;;;;;;5041117;28;20153;-82
2024/03/31 07:26:58;;;;;;;1.80;1.70;;;17.90;59.00;;;;;;5040174;28;20189;-83
2024/03/31 07:29:25;;;;;;;1.70;1.60;;;17.90;58.90;;;;;;5075353;28;20220;-81
2024/03/31 07:31:51;;;;;;;1.60;1.50;;;17.90;59.10;;;;;;5022987;28;20762;-82
2024/03/31 07:34:21;;;;;;;1.70;1.60;;;17.90;58.80;;;;;;5057450;28;20257;-82
2024/03/31 07:36:47;;;;;;;1.90;1.70;;;18.00;59.00;;;;;;5040801;28;20154;-83
2024/03/31 07:39:13;;;;;;;1.58;1.48;;;17.80;58.90;;;;;;5040596;28;20164;-81
2024/03/31 07:41:39;;;;;;;1.83;1.65;;;17.90;58.90;;;;;;5057329;28;20524;-82
2024/03/31 07:44:05;;;;;;;1.83;1.70;;;17.90;59.10;;;;;;5057345;28;20556;-82
2024/03/31 07:46:31;;;;;;;1.85;1.70;;;17.80;59.10;;;;;;5075457;28;20624;-82
2024/03/31 07:48:57;;;;;;;1.70;1.60;;;17.80;59.20;;;;;;5057319;28;20150;-82
2024/03/31 07:51:23;;;;;;;1.88;1.52;;;17.80;59.10;;;;;;5057442;28;20189;-82
2024/03/31 07:53:49;;;;;;;1.98;1.77;;;17.80;59.30;;;;;;5056515;28;20616;-83
2024/03/31 07:56:14;;;;;;;1.90;1.70;;;17.80;59.20;;;;;;5057051;28;20202;-83
2024/03/31 07:58:40;;;;;;;1.60;1.50;;;17.90;59.20;;;;;;5056975;28;20517;-83
2024/03/31 08:01:07;;;;;;;2.17;1.77;;;17.80;59.00;;;;;;5040305;28;20662;-82
2024/03/31 08:03:33;;;;;;;2.70;1.60;;;17.90;59.10;;;;;;5074737;28;20161;-82
2024/03/31 08:05:59;;;;;;;2.15;1.52;;;17.80;59.10;;;;;;5040218;28;20170;-83
2024/03/31 08:08:24;;;;;;;1.70;1.60;;;17.80;59.20;;;;;;5040265;28;20180;-82
2024/03/31 08:10:50;;;;;;;2.97;1.60;;;17.80;59.00;;;;;;5040039;28;20992;-82
2024/03/31 08:13:16;;;;;;;2.08;1.50;;;17.90;59.00;;;;;;5040198;28;20159;-82
2024/03/31 08:15:42;;;;;;;1.85;1.75;;;17.90;58.80;;;;;;5040059;28;20256;-82
2024/03/31 08:18:09;;;;;;;1.52;1.42;;;17.90;59.10;;;;;;5023469;28;20165;-83
2024/03/31 08:20:35;;;;;;;1.80;1.70;;;17.90;59.10;;;;;;5074438;28;20154;-82
2024/03/31 08:23:01;;;;;;;2.88;1.73;;;17.90;59.20;;;;;;5023259;28;20624;-82
2024/03/31 08:25:27;;;;;;;3.25;1.50;;;17.90;59.10;;;;;;5023271;28;20176;-82
2024/03/31 08:27:52;;;;;;;3.72;1.55;;;18.00;58.70;;;;;;5056379;28;20608;-83
2024/03/31 08:30:18;;;;;;;1.60;1.48;;;17.90;58.90;;;;;;5052821;28;20257;-83
2024/03/31 08:32:45;;;;;;;1.88;1.70;;;17.90;58.70;;;;;;5036272;28;20699;-82
2024/03/31 08:35:11;;;;;;;2.03;1.50;;;17.90;58.90;;;;;;5035971;28;20158;-82
2024/03/31 08:37:37;;;;;;;1.80;1.60;;;17.90;58.70;;;;;;5036283;28;20257;-81
2024/03/31 08:40:03;;;;;;;4.60;1.80;;;17.90;58.60;;;;;;5036657;28;20238;-83
2024/03/31 08:42:34;;;;;;;1.40;1.30;;;17.90;58.70;;;;;;5053973;28;20558;-82
2024/03/31 08:45:02;;;;;;;3.25;1.63;;;18.00;58.80;;;;;;5036709;28;20166;-82
2024/03/31 08:47:31;;;;;;;1.58;1.40;;;17.90;58.50;;;;;;5020328;28;20273;-82
2024/03/31 08:49:58;;;;;;;2.30;1.40;;;18.00;58.50;;;;;;5036409;28;20218;-83
2024/03/31 08:52:25;;;;;;;1.70;1.60;;;18.00;58.80;;;;;;5052566;28;20564;-83
2024/03/31 08:54:55;;;;;;;1.80;1.60;;;17.90;59.10;;;;;;5019334;28;20169;-82
2024/03/31 08:57:24;;;;;;;2.92;1.58;;;18.00;58.50;;;;;;5035282;28;20219;-82
2024/03/31 08:59:50;;;;;;;2.28;1.40;;;18.00;58.70;;;;;;5035127;28;20188;-82
2024/03/31 09:02:19;;;;;;;1.75;1.55;;;17.90;58.70;;;;;;5036022;28;20162;-83
2024/03/31 09:04:45;;;;;;;1.58;1.30;;;18.00;58.80;;;;;;5052407;28;20154;-82
2024/03/31 09:07:11;;;;;;;3.00;1.30;;;18.00;58.60;;;;;;5035796;28;20166;-82
2024/03/31 09:09:40;;;;;;;1.40;1.30;;;18.00;58.40;;;;;;5035752;28;20624;-82
2024/03/31 09:12:07;;;;;;;1.40;1.30;;;18.00;58.60;;;;;;5035765;28;20269;-83
2024/03/31 09:14:33;;;;;;;1.45;1.35;;;18.00;58.50;;;;;;5035736;28;20632;-82
2024/03/31 09:16:59;;;;;;;1.50;1.40;;;17.90;58.60;;;;;;5052220;28;20237;-82
2024/03/31 09:19:25;;;;;;;2.28;1.30;;;18.00;58.30;;;;;;5035702;28;20162;-82
2024/03/31 09:21:50;;;;;;;1.55;1.45;;;17.90;58.60;;;;;;5019364;28;20192;-82
2024/03/31 09:24:17;;;;;;;1.60;1.50;;;18.00;58.70;;;;;;5035516;28;20261;-83
2024/03/31 09:26:44;;;;;;;2.38;1.33;;;18.00;58.40;;;;;;5052097;28;20150;-83
2024/03/31 09:29:10;;;;;;;1.60;1.50;;;18.00;58.70;;;;;;5051851;28;20223;-83
2024/03/31 09:31:36;;;;;;;1.70;1.58;;;18.00;58.80;;;;;;5035333;28;20186;-83
2024/03/31 09:34:02;;;;;;;1.60;1.45;;;18.00;58.70;;;;;;5035430;28;20154;-81
2024/03/31 09:36:28;;;;;;;2.85;1.52;;;18.00;58.60;;;;;;5052077;28;20182;-81
2024/03/31 09:38:53;;;;;;;1.50;1.40;;;18.00;58.40;;;;;;5051860;28;20272;-82
2024/03/31 09:41:19;;;;;;;1.80;1.40;;;18.10;58.20;;;;;;5018743;28;20644;-82
2024/03/31 09:43:46;;;;;;;1.50;1.40;;;18.10;58.50;;;;;;5035065;28;20169;-82
2024/03/31 09:46:13;;;;;;;3.88;1.27;;;18.10;58.50;;;;;;5034495;28;20153;-83
2024/03/31 09:48:43;;;;;;;2.78;1.50;;;18.00;58.90;;;;;;5018864;28;20548;-83
2024/03/31 09:51:13;;;;;;;1.30;1.10;;;18.00;58.50;;;;;;5035736;28;20172;-82
2024/03/31 09:53:40;;;;;;;1.70;1.30;;;18.00;58.00;;;;;;5034828;28;20162;-82
2024/03/31 09:56:07;;;;;;;1.38;1.27;;;18.00;58.20;;;;;;5018917;28;20227;-83
2024/03/31 09:58:34;;;;;;;1.40;1.30;;;18.00;58.00;;;;;;5034955;28;20155;-82
2024/03/31 10:01:03;;;;;;;1.45;1.20;;;18.00;58.10;;;;;;5051635;28;20147;-83
2024/03/31 10:03:34;;;;;;;1.80;1.30;;;18.10;58.10;;;;;;5035263;28;20154;-82
2024/03/31 10:05:59;;;;;;;1.35;1.25;;;18.10;58.10;;;;;;5018846;28;20178;-82
2024/03/31 10:08:29;;;;;;;1.40;1.30;;;18.10;58.20;;;;;;5035131;28;20518;-82
2024/03/31 10:10:57;;;;;;;2.00;1.33;;;18.10;57.90;;;;;;5051699;28;20157;-82
2024/03/31 10:13:22;;;;;;;1.52;1.40;;;18.10;58.10;;;;;;5035431;28;20150;-81
2024/03/31 10:15:48;;;;;;;1.58;1.30;;;18.00;58.20;;;;;;5051327;28;20223;-82
2024/03/31 10:18:14;;;;;;;1.35;1.05;;;18.00;58.10;;;;;;5051755;28;20484;-83
2024/03/31 10:20:41;;;;;;;1.23;1.13;;;18.00;58.10;;;;;;5052872;28;20154;-82
2024/03/31 10:23:07;;;;;;;1.10;1.00;;;18.10;57.90;;;;;;5051320;28;20146;-82
2024/03/31 10:25:32;;;;;;;1.40;1.30;;;18.10;57.80;;;;;;5018381;28;20174;-80
2024/03/31 10:27:58;;;;;;;1.20;1.10;;;18.10;57.60;;;;;;5018032;28;20177;-81
2024/03/31 10:30:27;;;;;;;1.30;1.20;;;18.10;57.90;;;;;;5034516;28;20599;-81
2024/03/31 10:32:53;;;;;;;1.95;1.40;;;18.20;57.70;;;;;;5033785;28;20299;-81
2024/03/31 10:35:19;;;;;;;1.40;1.30;;;18.20;58.00;;;;;;5051101;28;20150;-81
2024/03/31 10:37:45;;;;;;;1.02;1.00;;;18.10;57.80;;;;;;5034650;28;20161;-81
2024/03/31 10:40:13;;;;;;;1.75;1.25;;;18.20;57.80;;;;;;5051199;28;20675;-81
2024/03/31 10:42:40;;;;;;;1.25;1.15;;;18.10;57.90;;;;;;5051177;28;20186;-81
2024/03/31 10:45:07;;;;;;;0.98;0.98;;;18.20;57.60;;;;;;5051320;28;20201;-81
2024/03/31 10:47:34;;;;;;;1.10;1.00;;;18.20;57.50;;;;;;5034622;28;20174;-81
2024/03/31 10:50:03;;;;;;;1.33;1.23;;;18.20;57.40;;;;;;5051189;28;20249;-81
2024/03/31 10:52:34;;;;;;;1.23;1.13;;;18.30;57.70;;;;;;5033775;28;20213;-81
2024/03/31 10:55:00;;;;;;;1.13;1.02;;;18.20;57.50;;;;;;5033532;28;20186;-81
2024/03/31 10:57:40;;;;;;;1.35;1.20;;;18.30;57.50;;;;;;5019653;28;20179;-81
2024/03/31 11:00:06;;;;;;;2.03;1.17;;;18.20;57.50;;;;;;5054514;28;20559;-82
2024/03/31 11:02:34;;;;;;;1.20;1.10;;;18.20;57.50;;;;;;5055242;28;20161;-82
2024/03/31 11:05:07;;;;;;;1.27;1.17;;;18.20;57.60;;;;;;5022610;28;20170;-82
2024/03/31 11:07:35;;;;;;;0.95;0.90;;;18.20;57.50;;;;;;5022455;28;20265;-82
2024/03/31 11:10:02;;;;;;;1.30;1.20;;;18.30;57.60;;;;;;5022108;28;20170;-82
2024/03/31 11:12:28;;;;;;;1.23;1.10;;;18.20;57.50;;;;;;5038551;28;20181;-82
2024/03/31 11:14:56;;;;;;;1.23;1.13;;;18.20;57.70;;;;;;5021938;28;20633;-82
2024/03/31 11:17:23;;;;;;;1.27;1.13;;;18.30;57.60;;;;;;5038279;28;20226;-82
2024/03/31 11:19:51;;;;;;;2.20;1.10;;;18.20;57.80;;;;;;5038205;28;20189;-83
2024/03/31 11:22:17;;;;;;;1.13;1.02;;;18.30;57.60;;;;;;5022076;28;20293;-81
2024/03/31 11:24:43;;;;;;;1.25;1.15;;;18.20;57.50;;;;;;5038026;28;20257;-82
2024/03/31 11:27:08;;;;;;;1.45;1.10;;;18.30;57.90;;;;;;5021609;28;20174;-82
2024/03/31 11:29:35;;;;;;;1.20;1.10;;;18.30;57.10;;;;;;5021681;28;20225;-83
2024/03/31 11:32:00;;;;;;;1.00;1.00;;;18.30;57.00;;;;;;5021556;28;20201;-83
2024/03/31 11:34:26;;;;;;;1.10;1.00;;;18.30;57.10;;;;;;5054858;28;20281;-82
2024/03/31 11:36:52;;;;;;;3.38;1.45;;;18.30;57.00;;;;;;5038399;28;20158;-83
2024/03/31 11:39:18;;;;;;;1.40;1.20;;;18.30;56.90;;;;;;5038402;28;20182;-82
2024/03/31 11:41:44;;;;;;;1.85;1.20;;;18.30;57.30;;;;;;5038193;28;20257;-82
2024/03/31 11:44:10;;;;;;;1.20;1.10;;;18.30;57.10;;;;;;5037624;28;20185;-82
2024/03/31 11:46:36;;;;;;;2.03;1.20;;;18.40;57.10;;;;;;5037242;28;20146;-82
2024/03/31 11:49:02;;;;;;;1.20;1.10;;;18.40;57.20;;;;;;5020956;28;20169;-82
2024/03/31 11:51:30;;;;;;;1.35;1.23;;;18.30;57.10;;;;;;5037098;28;20271;-82
2024/03/31 11:53:56;;;;;;;1.25;1.15;;;18.30;57.20;;;;;;5036566;28;20253;-82
2024/03/31 11:56:22;;;;;;;1.05;1.00;;;18.30;57.50;;;;;;5054771;28;20689;-82
2024/03/31 11:58:48;;;;;;;1.67;1.23;;;18.30;57.70;;;;;;5053492;28;20158;-82
2024/03/31 12:01:19;;;;;;;1.10;1.02;;;18.30;57.60;;;;;;5053792;28;20609;-82
2024/03/31 12:03:58;;;;;;;0.93;0.93;;;18.30;57.70;;;;;;5037021;28;20166;-82
2024/03/31 12:06:25;;;;;;;1.45;1.23;;;18.30;57.80;;;;;;5037073;28;20162;-81
2024/03/31 12:08:51;;;;;;;1.20;1.10;;;18.20;57.90;;;;;;5052721;28;20629;-82
2024/03/31 12:11:19;;;;;;;1.00;0.85;;;18.30;57.80;;;;;;5053347;28;20284;-81
2024/03/31 12:13:49;;;;;;;1.33;1.20;;;18.20;57.60;;;;;;5053369;28;20177;-81
2024/03/31 12:16:18;;;;;;;0.80;0.80;;;18.30;57.40;;;;;;5036634;28;20162;-81
2024/03/31 12:18:44;;;;;;;1.23;1.10;;;18.30;57.30;;;;;;5053313;28;20158;-81
2024/03/31 12:21:10;;;;;;;1.10;1.00;;;18.40;57.40;;;;;;5036655;28;20620;-82
2024/03/31 12:23:35;;;;;;;1.23;1.13;;;18.40;57.30;;;;;;5020280;28;20162;-81
2024/03/31 12:26:03;;;;;;;1.10;1.00;;;18.30;57.10;;;;;;5036566;28;20170;-81
2024/03/31 12:28:29;;;;;;;1.13;1.02;;;18.30;57.10;;;;;;5037975;28;20605;-82
2024/03/31 12:30:55;;;;;;;1.17;1.08;;;18.30;57.30;;;;;;5039972;28;20173;-82
2024/03/31 12:33:21;;;;;;;0.90;0.90;;;18.30;57.10;;;;;;5039675;28;20581;-82
2024/03/31 12:35:49;;;;;;;1.20;1.10;;;18.40;56.90;;;;;;5039629;28;20189;-82
2024/03/31 12:38:15;;;;;;;1.25;0.90;;;18.40;57.10;;;;;;5056293;28;20154;-82
2024/03/31 12:40:41;;;;;;;1.10;1.02;;;18.30;57.00;;;;;;5039613;28;20627;-82
2024/03/31 12:43:07;;;;;;;1.20;1.10;;;18.40;57.00;;;;;;5023280;28;20172;-82